Flight Track Log - Related Links

Times and Time Zones

All times are in EDT time to prevent confusion due to time zone crossing. See the FFT239 flight status page for this flight to view local times or setup timezone preferences in your user account.

Time Position Orientation Groundspeed Altitude Reporting Facility
EDT Latitude Longitude Course Direction KTS MPH feet Rate Location/Type
Fri 10:08:07 AM 36.1500 -86.6667 360° North 159 183 1,100  Level Nashville TRACON
Fri 10:08:25 AM 36.1500 -86.6667 15° North 157 181 1,600 1,538 Climbing Nashville TRACON
Fri 10:09:25 AM 36.2000 -86.6500 15° North 197 227 3,100 1,950 Climbing Nashville TRACON
Fri 10:10:25 AM 36.2333 -86.7167 302° West 288 331 5,500 2,750 Climbing Nashville TRACON
Fri 10:11:25 AM 36.2500 -86.8167 282° West 275 316 8,600 2,172 Climbing Nashville TRACON
Fri 10:13:08 AM 36.2522 -86.9803 271° West 332 382 11,400 2,061 Climbing Memphis Center
Fri 10:14:08 AM 36.2619 -87.1086 275° West 345 397 14,200 2,500 Climbing Memphis Center
Fri 10:15:08 AM 36.2692 -87.2269 274° West 345 397 16,400 2,050 Climbing Memphis Center
Fri 10:16:08 AM 36.2889 -87.3497 281° West 350 403 18,300 1,800 Climbing Memphis Center
Fri 10:17:08 AM 36.3125 -87.4697 284° West 357 411 20,000 1,750 Climbing Memphis Center
Fri 10:18:08 AM 36.3383 -87.5978 284° West 368 423 21,800 1,750 Climbing Memphis Center
Fri 10:19:08 AM 36.3642 -87.7231 284° West 380 437 23,500 1,500 Climbing Memphis Center
Fri 10:20:08 AM 36.3897 -87.8564 283° West 391 450 24,800 1,150 Climbing Memphis Center
Fri 10:21:08 AM 36.4175 -87.9922 284° West 396 456 25,800 1,100 Climbing Memphis Center
Fri 10:22:08 AM 36.4492 -88.1306 286° West 414 476 27,000 1,250 Climbing Memphis Center
Fri 10:23:08 AM 36.4767 -88.2692 284° West 414 476 28,300 1,200 Climbing Memphis Center
Fri 10:24:08 AM 36.5061 -88.4156 284° West 414 476 29,400 1,050 Climbing Memphis Center
Fri 10:25:08 AM 36.5333 -88.5594 283° West 425 489 30,400 1,100 Climbing Memphis Center
Fri 10:26:08 AM 36.5625 -88.7086 284° West 435 501 31,600 1,900 Climbing Memphis Center
Fri 10:27:08 AM 36.5892 -88.8503 283° West 435 501 34,200 2,200 Climbing Memphis Center
Fri 10:28:08 AM 36.6156 -88.9714 285° West 403 464 36,000 900 Climbing Memphis Center
Fri 10:29:08 AM 36.6419 -89.1028 284° West 393 452 36,000  Level Memphis Center
Fri 10:30:08 AM 36.6664 -89.2394 283° West 393 452 36,000  Level Memphis Center
Fri 10:31:08 AM 36.6883 -89.3633 282° West 402 463 36,000  Level Memphis Center
Fri 10:32:08 AM 36.7122 -89.4975 283° West 402 463 36,000  Level Memphis Center
Fri 10:33:08 AM 36.7358 -89.6319 282° West 402 463 36,000  Level Memphis Center
Fri 10:34:08 AM 36.7617 -89.7717 283° West 408 470 36,000  Level Memphis Center
Fri 10:35:08 AM 36.7853 -89.9086 282° West 408 470 36,000  Level Memphis Center
Fri 10:36:08 AM 36.8106 -90.0458 283° West 408 470 36,000  Level Memphis Center
Fri 10:37:08 AM 36.8339 -90.1833 282° West 408 470 36,000  Level Memphis Center
Fri 10:38:08 AM 36.8589 -90.3206 283° West 408 470 36,000  Level Memphis Center
Fri 10:39:07 AM 36.8833 -90.4517 283° West 403 464 36,000  Level Kansas City Center
Fri 10:40:09 AM 36.9058 -90.5886 282° West 403 464 36,000  Level Kansas City Center
Fri 10:41:12 AM 36.9303 -90.7253 283° West 404 465 36,000  Level Kansas City Center
Fri 10:42:14 AM 36.9531 -90.8617 282° West 402 463 36,000  Level Kansas City Center
Fri 10:43:17 AM 36.9775 -90.9967 283° West 400 460 36,000  Level Kansas City Center
Fri 10:44:18 AM 37.0006 -91.1417 281° West 399 459 36,000  Level Kansas City Center
Fri 10:45:19 AM 37.0258 -91.2747 283° West 395 455 36,000  Level Kansas City Center
Fri 10:46:23 AM 37.0656 -91.4303 288° West 392 451 36,000  Level Kansas City Center
Fri 10:47:23 AM 37.1000 -91.5617 288° West 393 452 36,000  Level Kansas City Center
Fri 10:48:27 AM 37.1344 -91.6947 288° West 398 458 36,000  Level Kansas City Center
Fri 10:49:28 AM 37.1706 -91.8267 289° West 399 459 36,000  Level Kansas City Center
Fri 10:50:30 AM 37.2078 -91.9614 289° West 404 465 36,000  Level Kansas City Center
Fri 10:51:33 AM 37.2442 -92.0953 289° West 405 466 36,000  Level Kansas City Center
Fri 10:52:34 AM 37.2825 -92.2278 290° West 402 463 36,000  Level Kansas City Center
Fri 10:53:35 AM 37.3300 -92.3881 290° West 405 466 36,000  Level Kansas City Center
Fri 10:54:37 AM 37.3692 -92.5208 290° West 403 464 36,000  Level Kansas City Center
Fri 10:55:40 AM 37.4081 -92.6564 290° West 407 468 36,000  Level Kansas City Center
Fri 10:56:43 AM 37.4511 -92.7894 292° West 407 468 36,000  Level Kansas City Center
Fri 10:57:44 AM 37.4944 -92.9208 293° West 405 466 36,000  Level Kansas City Center
Fri 10:58:45 AM 37.5350 -93.0550 291° West 406 467 36,000  Level Kansas City Center
Fri 10:59:50 AM 37.5711 -93.1942 288° West 413 475 36,000  Level Kansas City Center
Fri 11:00:51 AM 37.5933 -93.3658 279° West 415 478 36,000  Level Kansas City Center
Fri 11:01:54 AM 37.6128 -93.5114 280° West 418 481 36,000  Level Kansas City Center
Fri 11:02:55 AM 37.6311 -93.6567 279° West 418 481 36,000  Level Kansas City Center
Fri 11:03:59 AM 37.6494 -93.8008 279° West 416 479 36,000 -48 Level Kansas City Center
Fri 11:05:00 AM 37.6675 -93.9428 279° West 412 474 35,900  Descending Kansas City Center
Fri 11:06:01 AM 37.6836 -94.0856 278° West 411 473 36,000 48 Climbing Kansas City Center
Fri 11:07:05 AM 37.7011 -94.2269 279° West 409 471 36,000  Level Kansas City Center
Fri 11:08:07 AM 37.7203 -94.3983 278° West 408 470 36,000  Level Kansas City Center
Fri 11:09:07 AM 37.7369 -94.5378 279° West 404 465 36,000  Level Kansas City Center
Fri 11:10:10 AM 37.7528 -94.6722 279° West 402 463 36,000  Level Kansas City Center
Fri 11:11:11 AM 37.7703 -94.8286 278° West 401 461 36,000  Level Kansas City Center
Fri 11:12:15 AM 37.7869 -94.9600 279° West 398 458 36,000  Level Kansas City Center
Fri 11:13:15 AM 37.8039 -95.0931 279° West 399 459 36,000  Level Kansas City Center
Fri 11:14:19 AM 37.8200 -95.2475 278° West 402 463 36,000  Level Kansas City Center
Fri 11:15:20 AM 37.8317 -95.3906 276° West 406 467 36,000  Level Kansas City Center
Fri 11:16:21 AM 37.8439 -95.5336 276° West 408 470 36,000  Level Kansas City Center
Fri 11:17:24 AM 37.8553 -95.6786 276° West 413 475 36,000  Level Kansas City Center
Fri 11:18:28 AM 37.8661 -95.8494 275° West 409 471 36,000  Level Kansas City Center
Fri 11:19:28 AM 37.8778 -95.9917 276° West 408 470 36,000  Level Kansas City Center
Fri 11:20:32 AM 37.8897 -96.1314 276° West 411 473 36,000  Level Kansas City Center
Fri 11:21:33 AM 37.9011 -96.2758 276° West 413 475 36,000  Level Kansas City Center
Fri 11:22:34 AM 37.9117 -96.4211 275° West 414 476 36,000  Level Kansas City Center
Fri 11:23:35 AM 37.9264 -96.5950 276° West 415 478 36,000  Level Kansas City Center
Fri 11:24:39 AM 37.9361 -96.7403 275° West 415 478 36,000  Level Kansas City Center
Fri 11:25:40 AM 37.9472 -96.8864 276° West 416 479 36,000  Level Kansas City Center
Fri 11:26:43 AM 37.9586 -97.0300 276° West 412 474 36,000  Level Kansas City Center
Fri 11:27:44 AM 37.9689 -97.1747 275° West 414 476 36,000  Level Kansas City Center
Fri 11:28:48 AM 37.9789 -97.3189 275° West 411 473 36,000  Level Kansas City Center
Fri 11:29:49 AM 37.9903 -97.4822 275° West 408 470 36,000  Level Kansas City Center
Fri 11:30:52 AM 38.0003 -97.6256 275° West 410 472 36,000  Level Kansas City Center
Fri 11:31:52 AM 38.0094 -97.7678 275° West 407 468 36,000  Level Kansas City Center
Fri 11:32:56 AM 38.0189 -97.9161 275° West 406 467 36,000  Level Kansas City Center
Fri 11:33:57 AM 38.0300 -98.0636 276° West 412 474 36,000  Level Kansas City Center
Fri 11:34:58 AM 38.0394 -98.2258 274° West 406 467 36,000  Level Kansas City Center
Fri 11:36:02 AM 38.0481 -98.3686 274° West 408 470 36,000  Level Kansas City Center
Fri 11:37:03 AM 38.0567 -98.5131 274° West 410 472 36,000  Level Kansas City Center
Fri 11:38:07 AM 38.0650 -98.6556 274° West 408 470 36,000  Level Kansas City Center
Fri 11:39:08 AM 38.0736 -98.7981 274° West 406 467 36,000  Level Kansas City Center
Fri 11:40:09 AM 38.0831 -98.9700 274° West 407 468 36,000  Level Kansas City Center
Fri 11:41:13 AM 38.0914 -99.1139 274° West 409 471 36,000  Level Kansas City Center
Fri 11:42:14 AM 38.1008 -99.2578 275° West 409 471 36,000  Level Kansas City Center
Fri 11:43:14 AM 38.1072 -99.4011 273° West 408 470 36,000  Level Kansas City Center
Fri 11:44:17 AM 38.1147 -99.5539 274° West 408 470 36,000  Level Kansas City Center
Fri 11:45:18 AM 38.1236 -99.7147 274° West 409 471 36,000  Level Kansas City Center
Fri 11:46:22 AM 38.1294 -99.8517 273° West 408 470 36,000  Level Kansas City Center
Fri 11:47:22 AM 38.1367 -100.0103 273° West 405 466 36,000  Level Kansas City Center
Fri 11:48:27 AM 38.1431 -100.1458 273° West 403 464 36,000  Level Kansas City Center
Fri 11:49:27 AM 38.1503 -100.3036 273° West 402 463 36,000  Level Kansas City Center
Fri 11:50:28 AM 38.1553 -100.4386 273° West 402 463 36,000  Level Kansas City Center
Fri 11:51:33 AM 38.1622 -100.5975 273° West 405 466 36,000  Level Kansas City Center
Fri 11:52:33 AM 38.1681 -100.7342 273° West 406 467 36,000  Level Kansas City Center
Fri 11:53:37 AM 38.1744 -100.8936 273° West 407 468 36,000  Level Kansas City Center
Fri 11:54:38 AM 38.1794 -101.0303 273° West 408 470 36,000  Level Kansas City Center
Fri 11:55:39 AM 38.1850 -101.1889 273° West 405 466 36,000  Level Kansas City Center
Fri 11:56:41 AM 38.1889 -101.3250 272° West 405 466 36,000  Level Kansas City Center
Fri 11:57:44 AM 38.2353 -101.4717 292° West 408 470 36,000  Level Kansas City Center
Fri 11:58:47 AM 38.2925 -101.5911 301° West 412 474 36,000  Level Kansas City Center
Fri 11:59:48 AM 38.3597 -101.7275 302° West 410 472 36,000  Level Kansas City Center
Fri 12:00:49 PM 38.4178 -101.8464 302° West 412 474 36,000  Level Kansas City Center
Fri 12:02:19 PM 38.5047 -102.0256 302° West 415 478 36,000  Level Denver Center
Fri 12:03:21 PM 38.5708 -102.1647 301° West 412 474 36,000  Level Denver Center
Fri 12:04:23 PM 38.6292 -102.2861 302° West 418 481 36,000  Level Denver Center
Fri 12:05:26 PM 38.6961 -102.4269 301° West 415 478 36,000  Level Denver Center
Fri 12:06:28 PM 38.7525 -102.5481 301° West 415 478 36,000  Level Denver Center
Fri 12:07:30 PM 38.8197 -102.6875 302° West 413 475 36,000  Level Denver Center
Fri 12:08:32 PM 38.8756 -102.8075 301° West 413 475 36,000  Level Denver Center
Fri 12:09:34 PM 38.9344 -102.9342 301° West 413 475 36,000 -397 Level Denver Center
Fri 12:10:48 PM 39.0169 -103.1108 301° West 413 475 35,100 -1,368 Descending Denver Center
Fri 12:11:50 PM 39.0772 -103.2425 301° West 426 490 32,900 -2,516 Descending Denver Center
Fri 12:12:52 PM 39.1394 -103.3750 301° West 432 497 29,900 -2,613 Descending Denver Center
Fri 12:13:54 PM 39.1989 -103.5056 300° West 426 490 27,500 -2,352 Descending Denver Center
Fri 12:14:57 PM 39.2575 -103.6331 301° West 416 479 25,000 -2,352 Descending Denver Center
Fri 12:15:59 PM 39.3142 -103.7569 301° West 405 466 22,600 -1,742 Descending Denver Center
Fri 12:17:01 PM 39.3781 -103.8964 301° West 377 434 21,400 -1,258 Descending Denver Center
Fri 12:18:03 PM 39.4336 -103.9972 306° West 326 375 20,000 -1,403 Descending Denver Center
Fri 12:19:05 PM 39.4892 -104.0922 307° West 328 377 18,500 -1,403 Descending Denver Center
Fri 12:20:07 PM 39.5450 -104.1853 308° West 327 376 17,100 -1,258 Descending Denver Center
Fri 12:21:09 PM 39.6039 -104.2833 308° West 318 366 15,900 -1,113 Descending Denver Center
Fri 12:22:11 PM 39.6564 -104.3717 308° West 311 358 14,800 -1,065 Descending Denver Center
Fri 12:23:13 PM 39.7108 -104.4633 308° West 300 345 13,700 -1,016 Descending Denver Center
Fri 12:24:15 PM 39.7761 -104.5222 325° Northwest 303 349 12,700 -968 Descending Denver Center
Fri 12:25:17 PM 39.8572 -104.5211 North 273 314 11,700 -823 Descending Denver Center
Fri 12:26:19 PM 39.9267 -104.5225 359° North 253 291 11,000 -968 Descending Denver Center
Fri 12:27:21 PM 40.0008 -104.5225 360° North 249 287 9,700 -1,161 Descending Denver Center
Fri 12:28:23 PM 40.0706 -104.5225 360° North 252 290 8,600 -823 Descending Denver Center
Fri 12:29:25 PM 40.1314 -104.5456 344° North 226 260 8,000 -288 Descending Denver Center
Fri 12:30:28 PM 40.1125 -104.6153 251° West 219 252 8,000 -240 Level Denver Center
Fri 12:31:30 PM 40.0519 -104.6544 206° Southwest 223 257 7,500 -484 Descending Denver Center
Fri 12:32:32 PM 39.9967 -104.6847 203° Southwest 216 249 7,000 -677 Descending Denver Center
Fri 12:33:34 PM 39.9383 -104.6864 181° South 197 227 6,100 -823 Descending Denver Center
Fri 12:34:36 PM 39.8950 -104.6872 181° South 159 183 5,300 -774 Descending Denver Center
Fri 12:36:00 PM 39.8617 -104.6732 199° South  Level Estimated
Fri 12:43:00 PM 39.8617 -104.6732 199° South  Level Estimated
Fri 12:44:00 PM 39.8617 -104.6732 199° South  Level Estimated
Fri 12:45:00 PM 39.8617 -104.6732 199° South  Level Estimated

Login

Don't have an account? Register now (free) for customized features, flight alerts, and more!